createdAt,value
2022-08-21T00:02:27.154Z,98.62
2022-08-21T00:04:57.418Z,99.35
2022-08-21T00:07:25.466Z,98.16
2022-08-21T00:09:53.685Z,97.63
2022-08-21T00:12:21.197Z,97.67
2022-08-21T00:14:48.263Z,96.72
2022-08-21T00:17:15.248Z,99.65
2022-08-21T00:19:42.297Z,100.00
2022-08-21T00:22:09.669Z,98.85
2022-08-21T00:24:36.701Z,98.50
2022-08-21T00:27:03.675Z,96.15
2022-08-21T00:29:30.576Z,94.19
2022-08-21T00:31:57.662Z,93.02
2022-08-21T00:34:24.581Z,92.60
2022-08-21T00:36:51.490Z,93.33
2022-08-21T00:39:18.409Z,96.48
2022-08-21T00:41:45.716Z,100.00
2022-08-21T00:44:15.184Z,100.00
2022-08-21T00:46:43.392Z,100.00
2022-08-21T00:49:13.249Z,98.19
2022-08-21T00:51:43.139Z,96.80
2022-08-21T00:54:18.273Z,96.26
2022-08-21T00:56:49.841Z,93.18
2022-08-21T00:59:20.230Z,91.05
2022-08-21T01:01:48.131Z,91.13
2022-08-21T01:04:16.782Z,89.56
2022-08-21T01:06:44.744Z,89.05
2022-08-21T01:09:13.004Z,92.44
2022-08-21T01:11:40.540Z,96.68
2022-08-21T01:14:07.484Z,98.08
2022-08-21T01:16:34.618Z,98.80
2022-08-21T01:19:01.532Z,96.48
2022-08-21T01:21:29.157Z,96.04
2022-08-21T01:23:57.733Z,99.11
2022-08-21T01:26:34.138Z,100.00
2022-08-21T01:29:08.499Z,100.00
2022-08-21T01:31:35.450Z,100.00
2022-08-21T01:34:02.573Z,99.39
2022-08-21T01:36:30.029Z,100.00
2022-08-21T01:38:57.373Z,100.00
2022-08-21T01:41:24.467Z,100.00
2022-08-21T01:43:51.479Z,100.00
2022-08-21T01:46:18.524Z,100.00
2022-08-21T01:48:45.600Z,100.00
2022-08-21T01:51:12.947Z,100.00
2022-08-21T01:53:41.615Z,98.64
2022-08-21T01:56:12.542Z,98.45
2022-08-21T01:58:46.530Z,99.54
2022-08-21T02:01:13.995Z,99.55
2022-08-21T02:03:41.742Z,95.34
2022-08-21T02:06:14.154Z,93.32
2022-08-21T02:08:41.851Z,94.36
2022-08-21T02:11:08.821Z,96.44
2022-08-21T02:13:35.827Z,96.51
2022-08-21T02:16:02.952Z,96.15
2022-08-21T02:18:30.698Z,95.99
2022-08-21T02:20:58.043Z,96.30
2022-08-21T02:23:27.329Z,100.00
2022-08-21T02:26:07.760Z,100.00
2022-08-21T02:28:35.747Z,100.00
2022-08-21T02:31:03.235Z,100.00
2022-08-21T02:33:31.352Z,100.00
2022-08-21T02:35:59.777Z,100.00
2022-08-21T02:38:30.623Z,100.00
2022-08-21T02:40:58.448Z,100.00
2022-08-21T02:43:27.451Z,100.00
2022-08-21T02:45:56.362Z,100.00
2022-08-21T02:48:27.332Z,100.00
2022-08-21T02:51:00.319Z,100.00
2022-08-21T02:53:28.386Z,100.00
2022-08-21T02:55:58.299Z,100.00
2022-08-21T02:58:32.757Z,100.00
2022-08-21T03:01:00.087Z,100.00
2022-08-21T03:03:28.541Z,98.94
2022-08-21T03:05:56.127Z,98.29
2022-08-21T03:08:24.384Z,98.47
2022-08-21T03:10:54.663Z,99.77
2022-08-21T03:13:22.288Z,98.28
2022-08-21T03:15:50.622Z,96.81
2022-08-21T03:18:17.961Z,95.68
2022-08-21T03:20:48.734Z,100.00
2022-08-21T03:23:19.016Z,100.00
2022-08-21T03:25:48.239Z,100.00
2022-08-21T03:28:21.142Z,100.00
2022-08-21T03:30:50.585Z,100.00
2022-08-21T03:33:20.588Z,100.00
2022-08-21T03:35:57.832Z,100.00
2022-08-21T03:38:26.808Z,100.00
2022-08-21T03:40:54.388Z,98.46
2022-08-21T03:43:21.888Z,99.93
2022-08-21T03:45:48.915Z,100.00
2022-08-21T03:48:15.886Z,100.00
2022-08-21T03:50:44.572Z,99.98
2022-08-21T03:53:17.588Z,99.44
2022-08-21T03:55:51.977Z,97.35
2022-08-21T03:58:22.003Z,98.64
2022-08-21T04:00:53.217Z,97.00
2022-08-21T04:03:20.979Z,98.85
2022-08-21T04:05:48.406Z,96.52
2022-08-21T04:08:19.694Z,94.47
2022-08-21T04:10:50.033Z,91.38
2022-08-21T04:13:17.094Z,91.59
2022-08-21T04:15:44.151Z,94.41
2022-08-21T04:18:11.222Z,93.87
2022-08-21T04:20:38.800Z,94.61
2022-08-21T04:23:05.834Z,94.96
2022-08-21T04:25:32.908Z,92.20
2022-08-21T04:27:59.963Z,87.02
2022-08-21T04:30:28.765Z,85.72
2022-08-21T04:32:58.168Z,84.77
2022-08-21T04:35:27.861Z,85.94
2022-08-21T04:37:55.746Z,86.24
2022-08-21T04:40:25.281Z,88.53
2022-08-21T04:43:01.031Z,84.91
2022-08-21T04:45:31.520Z,82.19
2022-08-21T04:48:00.576Z,81.01
2022-08-21T04:50:32.758Z,83.85
2022-08-21T04:53:11.971Z,81.81
2022-08-21T04:55:39.770Z,81.67
2022-08-21T04:58:10.413Z,78.13
2022-08-21T05:00:38.291Z,76.09
2022-08-21T05:03:08.902Z,75.60
2022-08-21T05:05:36.103Z,79.94
2022-08-21T05:08:04.300Z,83.66
2022-08-21T05:10:32.586Z,82.49
2022-08-21T05:13:01.076Z,83.61
2022-08-21T05:15:28.213Z,84.64
2022-08-21T05:18:00.061Z,84.85
2022-08-21T05:20:27.634Z,83.13
2022-08-21T05:22:55.277Z,81.00
2022-08-21T05:25:23.811Z,79.56
2022-08-21T05:27:52.320Z,77.30
2022-08-21T05:30:20.673Z,75.98
2022-08-21T05:32:48.698Z,73.58
2022-08-21T05:35:16.232Z,73.60
2022-08-21T05:37:43.187Z,73.86
2022-08-21T05:40:22.616Z,73.74
2022-08-21T05:42:55.769Z,71.21
2022-08-21T05:45:43.206Z,72.66
2022-08-21T05:48:22.247Z,72.24
2022-08-21T05:50:51.035Z,71.18
2022-08-21T05:53:19.407Z,71.53
2022-08-21T05:55:47.275Z,71.66
2022-08-21T05:58:21.682Z,70.29
2022-08-21T06:00:49.325Z,68.48
2022-08-21T06:03:25.235Z,64.30
2022-08-21T06:05:53.885Z,63.51
2022-08-21T06:08:21.628Z,63.27
2022-08-21T06:10:49.945Z,63.57
2022-08-21T06:13:18.825Z,63.11
2022-08-21T06:15:47.050Z,63.74
2022-08-21T06:18:14.263Z,62.62
2022-08-21T06:20:41.854Z,62.28
2022-08-21T06:23:09.507Z,60.52
2022-08-21T06:25:36.913Z,59.16
2022-08-21T06:28:03.984Z,57.58
2022-08-21T06:30:32.510Z,58.24
2022-08-21T06:32:59.772Z,58.98
2022-08-21T06:35:27.530Z,58.30
2022-08-21T06:37:54.487Z,57.25
2022-08-21T06:40:21.469Z,57.04
2022-08-21T06:42:48.948Z,54.70
2022-08-21T06:45:16.893Z,53.31
2022-08-21T06:47:43.934Z,52.76
2022-08-21T06:50:11.118Z,48.38
2022-08-21T06:52:38.923Z,48.66
2022-08-21T06:55:09.013Z,48.04
2022-08-21T06:57:36.143Z,47.88
2022-08-21T07:00:05.876Z,48.67
2022-08-21T07:02:34.681Z,47.77
2022-08-21T07:05:01.956Z,47.39
2022-08-21T07:07:44.782Z,48.30
2022-08-21T07:10:19.881Z,49.60
2022-08-21T07:12:59.544Z,51.50
2022-08-21T07:15:28.113Z,47.83
2022-08-21T07:17:55.025Z,47.34
2022-08-21T07:20:22.020Z,48.47
2022-08-21T07:22:48.958Z,47.86
2022-08-21T07:25:16.012Z,49.50
2022-08-21T07:27:43.029Z,52.92
2022-08-21T07:30:10.425Z,53.14
2022-08-21T07:32:37.451Z,51.57
2022-08-21T07:35:05.025Z,49.78
2022-08-21T07:37:32.016Z,50.47
2022-08-21T07:39:59.109Z,51.01
2022-08-21T07:42:26.179Z,50.46
2022-08-21T07:44:56.638Z,50.23
2022-08-21T07:47:41.542Z,48.90
2022-08-21T07:50:12.343Z,55.13
2022-08-21T07:52:40.429Z,52.83
2022-08-21T07:55:09.609Z,49.72
2022-08-21T07:57:36.574Z,48.66
2022-08-21T08:00:06.834Z,48.14
2022-08-21T08:02:39.637Z,47.86
2022-08-21T08:05:10.370Z,45.11
2022-08-21T08:07:37.832Z,52.95
2022-08-21T08:10:08.084Z,54.51
2022-08-21T08:12:40.272Z,53.41
2022-08-21T08:15:13.326Z,52.24
2022-08-21T08:17:40.279Z,54.04
2022-08-21T08:20:09.110Z,54.91
2022-08-21T08:22:38.707Z,55.30
2022-08-21T08:25:09.461Z,53.48
2022-08-21T08:27:36.891Z,52.90
2022-08-21T08:30:05.485Z,53.14
2022-08-21T08:32:32.466Z,50.71
2022-08-21T08:34:59.368Z,50.88
2022-08-21T08:37:28.981Z,49.67
2022-08-21T08:40:03.460Z,48.75
2022-08-21T08:42:37.227Z,49.73
2022-08-21T08:45:27.215Z,48.52
2022-08-21T08:47:59.932Z,50.02
2022-08-21T08:50:38.962Z,49.15
2022-08-21T08:53:11.987Z,48.65
2022-08-21T08:55:42.363Z,50.96
2022-08-21T08:58:28.241Z,49.92
2022-08-21T09:00:56.502Z,50.72
2022-08-21T09:03:25.934Z,49.18
2022-08-21T09:06:01.933Z,50.61
2022-08-21T09:08:51.144Z,51.12
2022-08-21T09:11:29.627Z,51.59
2022-08-21T09:14:18.360Z,49.18
2022-08-21T09:17:03.869Z,49.31
2022-08-21T09:19:36.651Z,48.49
2022-08-21T09:22:31.721Z,48.75
2022-08-21T09:24:58.742Z,51.93
2022-08-21T09:27:26.790Z,52.33
2022-08-21T09:29:55.905Z,53.03
2022-08-21T09:32:37.040Z,52.20
2022-08-21T09:35:10.265Z,51.75
2022-08-21T09:37:49.628Z,53.09
2022-08-21T09:40:32.011Z,52.60
2022-08-21T09:43:02.683Z,52.37
2022-08-21T09:45:33.758Z,53.67
2022-08-21T09:48:19.995Z,53.56
2022-08-21T09:50:48.891Z,53.61
2022-08-21T09:53:25.869Z,51.81
2022-08-21T09:56:17.458Z,52.70
2022-08-21T09:58:51.836Z,53.78
2022-08-21T10:01:26.165Z,51.96
2022-08-21T10:04:09.024Z,46.66
2022-08-21T10:06:36.390Z,44.41
2022-08-21T10:09:11.321Z,47.09
2022-08-21T10:11:43.355Z,47.04
2022-08-21T10:14:32.066Z,47.12
2022-08-21T10:17:02.811Z,51.62
2022-08-21T10:19:40.892Z,48.21
2022-08-21T10:22:45.046Z,50.33
2022-08-21T10:25:21.083Z,50.37
2022-08-21T10:27:58.818Z,47.25
2022-08-21T10:31:02.231Z,50.43
2022-08-21T10:34:01.464Z,51.11
2022-08-21T10:36:40.442Z,53.22
2022-08-21T10:39:35.595Z,53.07
2022-08-21T10:42:28.627Z,54.60
2022-08-21T10:45:13.987Z,52.83
2022-08-21T10:47:57.701Z,54.17
2022-08-21T10:50:48.094Z,52.52
2022-08-21T10:53:26.887Z,55.45
2022-08-21T10:56:02.488Z,58.86
2022-08-21T10:58:42.077Z,57.96
2022-08-21T11:01:29.061Z,59.22
2022-08-21T11:04:10.469Z,60.89
2022-08-21T11:06:42.166Z,59.56
2022-08-21T11:09:19.414Z,59.94
2022-08-21T11:12:15.537Z,62.56
2022-08-21T11:15:07.251Z,62.28
2022-08-21T11:17:48.495Z,61.86
2022-08-21T11:20:30.114Z,62.14
2022-08-21T11:23:12.053Z,62.24
2022-08-21T11:25:45.371Z,58.31
2022-08-21T11:28:17.124Z,60.91
2022-08-21T11:30:47.023Z,59.87
2022-08-21T11:33:32.646Z,60.94
2022-08-21T11:36:31.031Z,61.06
2022-08-21T11:39:16.265Z,59.30
2022-08-21T11:41:58.734Z,61.31
2022-08-21T11:44:33.727Z,60.37
2022-08-21T11:47:00.690Z,58.55
2022-08-21T11:50:04.366Z,62.08
2022-08-21T11:52:45.241Z,60.95
2022-08-21T11:55:28.431Z,61.89
2022-08-21T11:58:02.860Z,58.76
2022-08-21T12:00:32.410Z,60.26
2022-08-21T12:03:31.744Z,61.07
2022-08-21T12:06:06.003Z,63.75
2022-08-21T12:08:36.176Z,62.20
2022-08-21T12:11:18.263Z,61.39
2022-08-21T12:14:16.855Z,60.02
2022-08-21T12:16:47.304Z,56.25
2022-08-21T12:19:21.599Z,57.23
2022-08-21T12:21:50.010Z,60.06
2022-08-21T12:24:32.892Z,58.03
2022-08-21T12:27:20.927Z,57.06
2022-08-21T12:30:00.795Z,58.82
2022-08-21T12:32:39.219Z,57.06
2022-08-21T12:35:09.082Z,54.17
2022-08-21T12:37:54.065Z,57.91
2022-08-21T12:40:32.348Z,59.47
2022-08-21T12:43:02.447Z,57.69
2022-08-21T12:45:32.083Z,58.67
2022-08-21T12:48:08.517Z,61.38
2022-08-21T12:50:43.245Z,60.24
2022-08-21T12:53:33.301Z,64.09
2022-08-21T12:56:04.812Z,59.25
2022-08-21T12:58:32.876Z,63.11
2022-08-21T13:01:24.683Z,67.42
2022-08-21T13:04:04.200Z,60.75
2022-08-21T13:06:39.794Z,60.09
2022-08-21T13:09:11.181Z,66.19
2022-08-21T13:11:40.860Z,58.62
2022-08-21T13:14:31.053Z,64.93
2022-08-21T13:17:00.592Z,66.16
2022-08-21T13:19:27.972Z,66.00
2022-08-21T13:21:54.880Z,65.88
2022-08-21T13:24:44.208Z,65.65
2022-08-21T13:27:21.785Z,64.78
2022-08-21T13:29:53.376Z,66.76
2022-08-21T13:32:27.198Z,67.45
2022-08-21T13:34:54.552Z,66.09
2022-08-21T13:37:23.960Z,68.25
2022-08-21T13:39:53.407Z,68.86
2022-08-21T13:42:21.271Z,68.64
2022-08-21T13:44:49.346Z,64.70
2022-08-21T13:47:20.045Z,66.11
2022-08-21T13:49:50.424Z,64.06
2022-08-21T13:52:27.003Z,65.94
2022-08-21T13:55:01.300Z,65.56
2022-08-21T13:57:35.571Z,67.95
2022-08-21T14:00:26.069Z,69.34
2022-08-21T14:02:55.114Z,70.39
2022-08-21T14:05:35.377Z,71.59
2022-08-21T14:08:07.735Z,71.94
2022-08-21T14:10:38.678Z,71.79
2022-08-21T14:13:08.165Z,68.70
2022-08-21T14:15:36.585Z,66.73
2022-08-21T14:18:18.894Z,75.83
2022-08-21T14:20:46.252Z,76.05
2022-08-21T14:23:24.470Z,70.76
2022-08-21T14:25:51.477Z,69.60
2022-08-21T14:28:21.461Z,66.68
2022-08-21T14:30:51.520Z,69.63
2022-08-21T14:33:33.251Z,70.97
2022-08-21T14:36:00.347Z,76.36
2022-08-21T14:38:29.227Z,73.14
2022-08-21T14:41:05.118Z,75.03
2022-08-21T14:43:32.360Z,77.03
2022-08-21T14:45:59.406Z,72.60
2022-08-21T14:48:26.386Z,72.89
2022-08-21T14:50:58.400Z,76.41
2022-08-21T14:53:27.406Z,76.88
2022-08-21T14:56:06.877Z,77.63
2022-08-21T14:58:37.411Z,77.00
2022-08-21T15:01:06.990Z,74.13
2022-08-21T15:03:35.022Z,78.26
2022-08-21T15:06:03.491Z,78.99
2022-08-21T15:08:30.733Z,79.68
2022-08-21T15:11:11.780Z,76.13
2022-08-21T15:13:40.808Z,73.14
2022-08-21T15:16:10.397Z,79.76
2022-08-21T15:18:37.478Z,82.27
2022-08-21T15:21:04.589Z,81.70
2022-08-21T15:23:31.493Z,79.90
2022-08-21T15:25:59.741Z,80.22
2022-08-21T15:28:26.846Z,79.37
2022-08-21T15:31:00.925Z,80.85
2022-08-21T15:33:27.951Z,81.92
2022-08-21T15:35:54.884Z,87.48
2022-08-21T15:38:21.806Z,86.76
2022-08-21T15:40:52.363Z,86.45
2022-08-21T15:43:30.232Z,87.48
2022-08-21T15:46:00.778Z,85.94
2022-08-21T15:48:28.757Z,90.07
2022-08-21T15:50:56.071Z,91.30
2022-08-21T15:53:23.065Z,85.09
2022-08-21T15:55:50.181Z,85.68
2022-08-21T15:58:17.952Z,86.22
2022-08-21T16:00:47.826Z,84.89
2022-08-21T16:03:19.389Z,85.89
2022-08-21T16:10:49.226Z,88.18
2022-08-21T16:18:05.606Z,89.67
2022-08-21T16:24:05.139Z,89.34
2022-08-21T16:26:57.679Z,87.24
2022-08-21T16:41:43.862Z,91.17
2022-08-21T16:44:14.342Z,93.66
2022-08-21T16:46:51.889Z,93.85
2022-08-21T16:49:18.914Z,92.65
2022-08-21T16:51:45.870Z,89.29
2022-08-21T16:54:14.069Z,89.60
2022-08-21T16:56:45.701Z,89.90
2022-08-21T16:59:14.579Z,92.49
2022-08-21T17:01:44.797Z,93.04
2022-08-21T17:04:11.725Z,92.46
2022-08-21T17:06:38.716Z,91.83
2022-08-21T17:09:05.811Z,92.07
2022-08-21T17:11:38.463Z,92.21
2022-08-21T17:14:19.735Z,91.25
2022-08-21T17:16:49.895Z,91.11
2022-08-21T17:19:17.288Z,90.54
2022-08-21T17:21:44.378Z,91.79
2022-08-21T17:24:13.082Z,91.04
2022-08-21T17:26:40.127Z,88.83
2022-08-21T17:29:10.068Z,89.22
2022-08-21T17:31:40.387Z,89.90
2022-08-21T17:34:07.888Z,88.91
2022-08-21T17:36:35.207Z,84.95
2022-08-21T17:39:02.432Z,84.33
2022-08-21T17:41:29.575Z,83.52
2022-08-21T17:43:56.579Z,81.29
2022-08-21T17:46:27.130Z,80.05
2022-08-21T17:48:54.642Z,81.99
2022-08-21T17:51:22.146Z,83.06
2022-08-21T17:53:49.154Z,82.78
2022-08-21T17:56:18.734Z,81.51
2022-08-21T17:58:49.629Z,80.33
2022-08-21T18:01:17.557Z,80.17
2022-08-21T18:03:47.199Z,82.18
2022-08-21T18:06:17.660Z,83.46
2022-08-21T18:08:46.074Z,83.16
2022-08-21T18:11:23.466Z,83.00
2022-08-21T18:13:52.871Z,81.58
2022-08-21T18:16:20.453Z,80.60
2022-08-21T18:18:49.208Z,80.85
2022-08-21T18:21:16.317Z,78.78
2022-08-21T18:23:44.946Z,77.49
2022-08-21T18:26:19.232Z,78.69
2022-08-21T18:28:46.369Z,78.44
2022-08-21T18:31:14.189Z,79.14
2022-08-21T18:33:43.626Z,79.94
2022-08-21T18:36:24.999Z,79.85
2022-08-21T18:38:52.970Z,80.97
2022-08-21T18:41:20.000Z,81.91
2022-08-21T18:43:47.006Z,80.33
2022-08-21T18:46:14.637Z,80.94
2022-08-21T18:48:43.115Z,79.14
2022-08-21T18:51:12.381Z,77.37
2022-08-21T18:53:39.541Z,77.19
2022-08-21T18:56:15.885Z,78.00
2022-08-21T18:58:45.108Z,80.64
2022-08-21T19:01:12.619Z,82.87
2022-08-21T19:03:40.106Z,82.66
2022-08-21T19:06:09.816Z,83.95
2022-08-21T19:08:39.066Z,84.22
2022-08-21T19:11:06.736Z,84.94
2022-08-21T19:13:35.879Z,83.78
2022-08-21T19:16:05.360Z,80.54
2022-08-21T19:18:40.297Z,80.12
2022-08-21T19:21:07.719Z,79.31
2022-08-21T19:23:35.166Z,79.69
2022-08-21T19:26:06.895Z,79.57
2022-08-21T19:28:39.701Z,80.73
2022-08-21T19:31:23.853Z,80.88
2022-08-21T19:33:58.992Z,80.93
2022-08-21T19:36:30.307Z,81.34
2022-08-21T19:38:57.738Z,81.56
2022-08-21T19:41:28.586Z,81.28
2022-08-21T19:43:58.359Z,80.14
2022-08-21T19:46:30.762Z,79.34
2022-08-21T19:49:00.715Z,78.89
2022-08-21T19:51:29.379Z,79.31
2022-08-21T19:53:57.583Z,81.20
2022-08-21T19:56:27.846Z,81.30
2022-08-21T19:58:55.273Z,81.20
2022-08-21T20:01:25.520Z,83.30
2022-08-21T20:03:54.703Z,81.77
2022-08-21T20:06:25.472Z,81.25
2022-08-21T20:08:55.130Z,78.05
2022-08-21T20:14:21.206Z,79.67
2022-08-21T20:19:38.505Z,81.18
2022-08-21T20:22:06.394Z,81.80
2022-08-21T20:24:34.030Z,81.22
2022-08-21T20:27:02.915Z,81.63
2022-08-21T20:32:22.335Z,82.61
2022-08-21T20:34:52.164Z,80.52
2022-08-21T20:37:38.407Z,80.25
2022-08-21T20:40:11.596Z,82.12
2022-08-21T20:42:47.338Z,82.19
2022-08-21T20:45:26.757Z,82.87
2022-08-21T20:47:59.078Z,84.45
2022-08-21T20:50:30.121Z,84.41
2022-08-21T20:53:06.800Z,83.77
2022-08-21T20:55:37.538Z,83.61
2022-08-21T20:58:09.286Z,85.63
2022-08-21T21:00:43.547Z,86.56
2022-08-21T21:03:32.782Z,85.03
2022-08-21T21:06:03.825Z,83.94
2022-08-21T21:08:35.842Z,82.62
2022-08-21T21:11:16.404Z,82.78
2022-08-21T21:14:03.479Z,84.94
2022-08-21T21:16:30.381Z,86.24
2022-08-21T21:18:57.308Z,87.44
2022-08-21T21:21:38.056Z,90.11
2022-08-21T21:24:18.285Z,92.32
2022-08-21T21:26:52.474Z,92.39
2022-08-21T21:29:27.365Z,90.40
2022-08-21T21:31:57.254Z,88.21
2022-08-21T21:37:48.850Z,86.27
2022-08-21T21:40:28.617Z,87.53
2022-08-21T21:43:29.984Z,88.13
2022-08-21T21:46:04.053Z,90.46
2022-08-21T21:49:00.443Z,91.53
2022-08-21T21:51:49.251Z,90.70
2022-08-21T21:54:57.970Z,89.22
2022-08-21T21:58:01.763Z,87.25
2022-08-21T22:00:34.369Z,90.07
2022-08-21T22:03:14.202Z,91.37
2022-08-21T22:05:51.892Z,91.85
2022-08-21T22:08:34.304Z,94.28
2022-08-21T22:11:24.092Z,95.79
2022-08-21T22:14:02.943Z,95.64
2022-08-21T22:16:31.370Z,95.62
2022-08-21T22:19:35.185Z,97.02
2022-08-21T22:22:06.447Z,95.12
2022-08-21T22:24:42.780Z,94.54
2022-08-21T22:27:18.326Z,94.92
2022-08-21T22:29:51.970Z,96.69
2022-08-21T22:32:37.679Z,96.48
2022-08-21T22:35:09.635Z,97.29
2022-08-21T22:38:00.129Z,96.53
2022-08-21T22:40:34.869Z,95.89
2022-08-21T22:43:07.181Z,96.28
2022-08-21T22:45:52.015Z,96.98
2022-08-21T22:48:23.103Z,98.54
2022-08-21T22:50:59.793Z,96.86
2022-08-21T22:53:29.759Z,95.73
2022-08-21T22:56:02.258Z,93.44
2022-08-21T22:58:57.797Z,95.33
2022-08-21T23:01:24.523Z,95.46
2022-08-21T23:03:57.427Z,96.55
2022-08-21T23:06:35.284Z,98.04
2022-08-21T23:09:09.713Z,98.04
2022-08-21T23:11:39.896Z,97.96
2022-08-21T23:14:07.687Z,98.04
2022-08-21T23:16:49.162Z,96.58
2022-08-21T23:19:28.912Z,96.15
2022-08-21T23:22:39.476Z,94.47
2022-08-21T23:25:21.471Z,92.98
2022-08-21T23:27:56.154Z,94.69
2022-08-21T23:31:01.968Z,95.58
2022-08-21T23:33:57.072Z,94.11
2022-08-21T23:37:04.191Z,94.51
2022-08-21T23:39:54.153Z,97.67
2022-08-21T23:42:51.898Z,100.00
2022-08-21T23:45:38.783Z,98.96
2022-08-21T23:48:29.514Z,98.79
2022-08-21T23:51:08.499Z,97.54
2022-08-21T23:53:55.091Z,96.01
2022-08-21T23:56:49.481Z,95.31
2022-08-21T23:59:43.743Z,97.51
